createdAt,value
2019-04-29T00:01:19.233Z,82.73
2019-04-29T00:03:45.563Z,82.89
2019-04-29T00:06:11.917Z,83.84
2019-04-29T00:08:38.218Z,83.81
2019-04-29T00:11:04.547Z,84.03
2019-04-29T00:13:30.853Z,83.97
2019-04-29T00:15:57.159Z,83.96
2019-04-29T00:18:23.520Z,83.70
2019-04-29T00:20:49.821Z,83.76
2019-04-29T00:23:16.146Z,83.70
2019-04-29T00:25:42.468Z,83.82
2019-04-29T00:28:08.800Z,84.39
2019-04-29T00:30:35.139Z,84.40
2019-04-29T00:33:01.466Z,84.64
2019-04-29T00:35:27.806Z,83.49
2019-04-29T00:37:54.098Z,83.78
2019-04-29T00:40:20.450Z,83.54
2019-04-29T00:42:46.754Z,84.08
2019-04-29T00:45:13.063Z,84.52
2019-04-29T00:47:39.399Z,83.44
2019-04-29T00:50:05.701Z,83.31
2019-04-29T00:52:32.056Z,83.62
2019-04-29T00:54:58.381Z,83.79
2019-04-29T00:57:24.684Z,83.52
2019-04-29T00:59:51.010Z,83.22
2019-04-29T01:02:17.313Z,84.37
2019-04-29T01:04:43.644Z,84.00
2019-04-29T01:07:09.957Z,83.33
2019-04-29T01:09:36.287Z,83.62
2019-04-29T01:12:02.612Z,82.97
2019-04-29T01:14:28.915Z,82.34
2019-04-29T01:16:55.248Z,81.54
2019-04-29T01:19:21.581Z,80.98
2019-04-29T01:21:47.908Z,80.69
2019-04-29T01:24:14.233Z,80.75
2019-04-29T01:26:40.547Z,80.85
2019-04-29T01:29:06.870Z,81.60
2019-04-29T01:31:33.175Z,81.63
2019-04-29T01:33:59.494Z,81.73
2019-04-29T01:36:25.815Z,80.81
2019-04-29T01:38:52.150Z,80.38
2019-04-29T01:41:18.471Z,80.21
2019-04-29T01:43:44.775Z,79.91
2019-04-29T01:46:11.128Z,79.34
2019-04-29T01:48:37.436Z,79.17
2019-04-29T01:51:03.764Z,79.61
2019-04-29T01:53:30.092Z,78.99
2019-04-29T01:55:56.420Z,78.79
2019-04-29T01:58:22.748Z,79.04
2019-04-29T02:00:49.053Z,80.97
2019-04-29T02:03:15.383Z,80.44
2019-04-29T02:05:41.687Z,80.85
2019-04-29T02:08:08.012Z,79.96
2019-04-29T02:10:34.315Z,80.12
2019-04-29T02:13:00.632Z,80.64
2019-04-29T02:15:26.951Z,80.70
2019-04-29T02:17:53.258Z,80.98
2019-04-29T02:20:19.579Z,81.42
2019-04-29T02:22:45.889Z,81.93
2019-04-29T02:25:12.239Z,82.42
2019-04-29T02:27:38.541Z,82.94
2019-04-29T02:30:04.871Z,83.30
2019-04-29T02:32:31.231Z,83.52
2019-04-29T02:34:57.529Z,83.62
2019-04-29T02:37:23.858Z,83.98
2019-04-29T02:39:50.165Z,84.51
2019-04-29T02:42:16.604Z,84.74
2019-04-29T02:44:42.820Z,84.85
2019-04-29T02:47:09.121Z,85.03
2019-04-29T02:49:35.489Z,84.94
2019-04-29T02:52:01.810Z,85.22
2019-04-29T02:54:28.123Z,85.36
2019-04-29T02:56:54.437Z,85.33
2019-04-29T02:59:20.764Z,85.46
2019-04-29T03:01:47.103Z,85.33
2019-04-29T03:04:13.406Z,85.59
2019-04-29T03:06:39.765Z,85.58
2019-04-29T03:09:06.099Z,85.52
2019-04-29T03:11:32.405Z,85.89
2019-04-29T03:13:58.738Z,86.84
2019-04-29T03:16:25.047Z,85.91
2019-04-29T03:18:51.362Z,85.59
2019-04-29T03:21:17.697Z,85.98
2019-04-29T03:23:44.026Z,86.18
2019-04-29T03:26:10.325Z,85.84
2019-04-29T03:28:36.657Z,85.47
2019-04-29T03:31:02.980Z,85.81
2019-04-29T03:33:29.293Z,86.21
2019-04-29T03:35:55.632Z,85.93
2019-04-29T03:38:21.925Z,86.53
2019-04-29T03:40:48.255Z,86.38
2019-04-29T03:43:14.588Z,86.32
2019-04-29T03:45:40.923Z,86.35
2019-04-29T03:48:07.227Z,86.34
2019-04-29T03:50:33.553Z,86.58
2019-04-29T03:52:59.870Z,87.06
2019-04-29T03:55:39.232Z,87.27
2019-04-29T03:57:52.563Z,87.42
2019-04-29T04:00:18.874Z,87.47
2019-04-29T04:02:45.202Z,87.42
2019-04-29T04:05:11.543Z,87.33
2019-04-29T04:07:37.833Z,87.37
2019-04-29T04:10:04.143Z,87.26
2019-04-29T04:12:30.475Z,87.33
2019-04-29T04:14:56.777Z,87.19
2019-04-29T04:17:23.109Z,86.97
2019-04-29T04:19:49.440Z,87.04
2019-04-29T04:22:15.766Z,87.02
2019-04-29T04:24:42.093Z,86.59
2019-04-29T04:27:08.438Z,86.32
2019-04-29T04:29:34.761Z,86.11
2019-04-29T04:32:01.094Z,85.85
2019-04-29T04:34:27.429Z,85.77
2019-04-29T04:36:53.742Z,85.34
2019-04-29T04:39:20.088Z,85.10
2019-04-29T04:41:46.392Z,84.85
2019-04-29T04:44:12.724Z,84.73
2019-04-29T04:46:39.031Z,84.26
2019-04-29T04:49:05.355Z,83.54
2019-04-29T04:51:31.679Z,83.19
2019-04-29T04:53:57.984Z,83.38
2019-04-29T04:56:24.310Z,83.33
2019-04-29T04:58:50.636Z,83.39
2019-04-29T05:01:16.962Z,82.94
2019-04-29T05:03:43.270Z,82.38
2019-04-29T05:06:09.634Z,82.27
2019-04-29T05:08:35.961Z,82.06
2019-04-29T05:11:02.296Z,81.26
2019-04-29T05:13:28.881Z,80.83
2019-04-29T05:15:54.944Z,81.18
2019-04-29T05:18:21.278Z,81.17
2019-04-29T05:20:47.604Z,80.44
2019-04-29T05:23:13.903Z,79.43
2019-04-29T05:25:40.232Z,78.30
2019-04-29T05:28:06.579Z,78.10
2019-04-29T05:30:32.909Z,77.04
2019-04-29T05:32:59.273Z,76.51
2019-04-29T05:35:26.438Z,76.08
2019-04-29T05:37:51.928Z,76.42
2019-04-29T05:40:18.232Z,75.18
2019-04-29T05:42:48.313Z,73.87
2019-04-29T05:45:10.872Z,74.22
2019-04-29T05:47:37.181Z,73.66
2019-04-29T05:50:06.422Z,70.98
2019-04-29T05:52:30.192Z,69.42
2019-04-29T05:54:56.148Z,69.12
2019-04-29T05:57:25.393Z,68.05
2019-04-29T05:59:49.552Z,68.03
2019-04-29T06:02:15.135Z,67.72
2019-04-29T06:04:41.447Z,68.08
2019-04-29T06:07:07.778Z,66.51
2019-04-29T06:09:34.117Z,67.13
2019-04-29T06:12:00.442Z,67.45
2019-04-29T06:14:26.787Z,67.74
2019-04-29T06:16:53.234Z,68.72
2019-04-29T06:19:19.423Z,67.49
2019-04-29T06:21:45.735Z,68.24
2019-04-29T06:24:12.072Z,67.00
2019-04-29T06:26:38.393Z,67.44
2019-04-29T06:29:05.958Z,65.81
2019-04-29T06:31:31.060Z,63.79
2019-04-29T06:34:00.661Z,64.13
2019-04-29T06:36:23.708Z,64.49
2019-04-29T06:38:50.002Z,62.42
2019-04-29T06:41:16.309Z,62.68
2019-04-29T06:43:42.668Z,62.85
2019-04-29T06:46:09.007Z,61.83
2019-04-29T06:48:35.314Z,61.24
2019-04-29T06:51:01.649Z,60.12
2019-04-29T06:53:27.951Z,58.51
2019-04-29T06:55:54.300Z,57.33
2019-04-29T06:58:20.615Z,55.95
2019-04-29T07:00:46.938Z,56.34
2019-04-29T07:03:13.245Z,55.81
2019-04-29T07:05:39.707Z,54.56
2019-04-29T07:08:06.024Z,54.28
2019-04-29T07:10:32.401Z,53.45
2019-04-29T07:12:58.805Z,53.54
2019-04-29T07:15:25.046Z,53.43
2019-04-29T07:17:51.391Z,53.03
2019-04-29T07:20:17.717Z,52.86
2019-04-29T07:22:47.809Z,52.73
2019-04-29T07:25:12.798Z,51.15
2019-04-29T07:27:43.133Z,50.02
2019-04-29T07:30:08.427Z,49.46
2019-04-29T07:32:35.578Z,48.85
2019-04-29T07:35:00.943Z,50.43
2019-04-29T07:37:29.756Z,51.70
2019-04-29T07:39:53.590Z,49.55
2019-04-29T07:42:19.902Z,48.52
2019-04-29T07:44:48.826Z,47.84
2019-04-29T07:47:12.565Z,48.04
2019-04-29T07:49:38.872Z,47.44
2019-04-29T07:52:05.208Z,48.01
2019-04-29T07:54:31.550Z,49.58
2019-04-29T07:56:57.860Z,50.21
2019-04-29T07:59:24.210Z,50.40
2019-04-29T08:01:50.539Z,49.51
2019-04-29T08:04:16.846Z,49.37
2019-04-29T08:06:44.776Z,49.36
2019-04-29T08:09:09.736Z,49.88
2019-04-29T08:11:35.842Z,48.59
2019-04-29T08:14:02.147Z,48.76
2019-04-29T08:16:28.566Z,49.26
2019-04-29T08:18:54.955Z,48.57
2019-04-29T08:21:21.207Z,49.50
2019-04-29T08:23:47.564Z,49.41
2019-04-29T08:26:13.869Z,48.76
2019-04-29T08:28:40.198Z,48.72
2019-04-29T08:31:06.535Z,48.24
2019-04-29T08:33:32.865Z,47.75
2019-04-29T08:35:59.167Z,46.95
2019-04-29T08:38:25.500Z,46.35
2019-04-29T08:40:51.844Z,46.08
2019-04-29T08:43:20.591Z,47.06
2019-04-29T08:45:44.478Z,46.74
2019-04-29T08:48:10.786Z,47.44
2019-04-29T08:50:37.130Z,45.85
2019-04-29T08:53:03.471Z,45.91
2019-04-29T08:55:30.902Z,45.76
2019-04-29T08:57:56.110Z,45.15
2019-04-29T09:00:22.440Z,45.26
2019-04-29T09:02:49.351Z,44.89
2019-04-29T09:05:15.102Z,44.21
2019-04-29T09:07:41.432Z,44.11
2019-04-29T09:10:07.788Z,42.35
2019-04-29T09:12:34.087Z,42.51
2019-04-29T09:15:00.418Z,42.92
2019-04-29T09:17:26.748Z,42.54
2019-04-29T09:19:53.076Z,42.41
2019-04-29T09:22:19.393Z,42.94
2019-04-29T09:24:48.173Z,42.34
2019-04-29T09:27:12.086Z,42.67
2019-04-29T09:29:38.394Z,42.94
2019-04-29T09:32:04.845Z,41.41
2019-04-29T09:34:31.150Z,39.52
2019-04-29T09:36:57.494Z,38.78
2019-04-29T09:39:23.803Z,37.00
2019-04-29T09:41:50.240Z,39.07
2019-04-29T09:44:16.562Z,38.64
2019-04-29T09:46:42.866Z,38.43
2019-04-29T09:49:09.195Z,37.64
2019-04-29T09:51:35.496Z,37.56
2019-04-29T09:54:02.220Z,38.95
2019-04-29T09:56:28.533Z,39.63
2019-04-29T09:58:54.863Z,38.29
2019-04-29T10:01:21.217Z,38.37
2019-04-29T10:03:47.560Z,37.96
2019-04-29T10:06:17.121Z,37.18
2019-04-29T10:08:43.481Z,37.91
2019-04-29T10:11:09.860Z,39.01
2019-04-29T10:13:36.162Z,38.16
2019-04-29T10:16:02.496Z,39.73
2019-04-29T10:18:29.870Z,39.01
2019-04-29T10:20:55.133Z,38.32
2019-04-29T10:23:21.471Z,38.10
2019-04-29T10:25:47.782Z,37.23
2019-04-29T10:28:14.116Z,36.62
2019-04-29T10:30:40.439Z,35.25
2019-04-29T10:33:17.581Z,36.97
2019-04-29T10:35:40.729Z,38.70
2019-04-29T10:38:06.029Z,39.57
2019-04-29T10:40:32.336Z,39.08
2019-04-29T10:42:58.683Z,38.71
2019-04-29T10:45:25.521Z,36.85
2019-04-29T10:47:51.805Z,36.47
2019-04-29T10:50:23.774Z,36.72
2019-04-29T10:52:47.927Z,37.32
2019-04-29T10:55:14.262Z,37.26
2019-04-29T10:57:40.660Z,36.83
2019-04-29T11:00:06.977Z,36.99
2019-04-29T11:02:33.311Z,35.58
2019-04-29T11:05:02.468Z,33.90
2019-04-29T11:07:26.769Z,34.01
2019-04-29T11:09:52.638Z,34.78
2019-04-29T11:12:18.631Z,34.33
2019-04-29T11:14:44.941Z,34.06
2019-04-29T11:17:16.476Z,34.16
2019-04-29T11:19:39.884Z,34.06
2019-04-29T11:22:04.070Z,35.63
2019-04-29T11:24:32.822Z,33.77
2019-04-29T11:27:10.759Z,33.06
2019-04-29T11:29:27.465Z,34.21
2019-04-29T11:31:54.197Z,33.30
2019-04-29T11:34:17.806Z,33.41
2019-04-29T11:36:44.136Z,34.25
2019-04-29T11:39:09.098Z,34.28
2019-04-29T11:41:34.691Z,34.37
2019-04-29T11:44:00.996Z,35.39
2019-04-29T11:46:27.558Z,34.88
2019-04-29T11:48:53.827Z,34.98
2019-04-29T11:51:20.380Z,34.28
2019-04-29T11:53:46.705Z,33.24
2019-04-29T11:56:13.033Z,32.91
2019-04-29T11:58:39.347Z,32.23
2019-04-29T12:01:08.511Z,33.84
2019-04-29T12:03:32.054Z,33.09
2019-04-29T12:05:58.357Z,33.81
2019-04-29T12:08:24.698Z,34.29
2019-04-29T12:11:05.964Z,34.96
2019-04-29T12:13:18.932Z,35.56
2019-04-29T12:15:45.039Z,36.00
2019-04-29T12:18:09.976Z,35.01
2019-04-29T12:20:36.305Z,34.08
2019-04-29T12:23:02.631Z,34.11
2019-04-29T12:25:29.299Z,33.53
2019-04-29T12:28:01.444Z,33.44
2019-04-29T12:30:21.713Z,33.59
2019-04-29T12:32:48.044Z,33.61
2019-04-29T12:35:16.721Z,32.75
2019-04-29T12:37:40.859Z,33.61
2019-04-29T12:40:09.859Z,33.17
2019-04-29T12:42:35.727Z,33.19
2019-04-29T12:44:59.835Z,33.88
2019-04-29T12:47:27.146Z,32.93
2019-04-29T12:49:52.720Z,31.91
2019-04-29T12:52:18.996Z,31.77
2019-04-29T12:54:46.077Z,32.86
2019-04-29T12:57:11.641Z,33.56
2019-04-29T12:59:38.085Z,33.85
2019-04-29T13:02:04.810Z,34.14
2019-04-29T13:04:30.757Z,34.10
2019-04-29T13:06:57.061Z,34.68
2019-04-29T13:09:23.423Z,34.18
2019-04-29T13:11:56.119Z,35.23
2019-04-29T13:14:16.111Z,34.51
2019-04-29T13:16:42.474Z,34.63
2019-04-29T13:19:13.277Z,34.49
2019-04-29T13:21:35.269Z,33.97
2019-04-29T13:24:13.507Z,34.56
2019-04-29T13:26:28.852Z,34.79
2019-04-29T13:29:00.353Z,34.79
2019-04-29T13:31:20.619Z,34.98
2019-04-29T13:33:51.005Z,35.39
2019-04-29T13:36:19.839Z,35.09
2019-04-29T13:38:41.569Z,35.90
2019-04-29T13:41:13.935Z,36.08
2019-04-29T13:43:35.617Z,36.19
2019-04-29T13:46:04.964Z,36.37
2019-04-29T13:48:26.866Z,36.06
2019-04-29T13:50:53.173Z,36.36
2019-04-29T13:53:19.565Z,36.17
2019-04-29T13:55:49.131Z,36.02
2019-04-29T13:58:12.173Z,35.96
2019-04-29T14:00:38.509Z,36.45
2019-04-29T14:03:07.127Z,36.52
2019-04-29T14:05:32.404Z,36.65
2019-04-29T14:07:57.505Z,37.02
2019-04-29T14:10:23.866Z,36.84
2019-04-29T14:13:00.758Z,37.42
2019-04-29T14:15:16.473Z,37.45
2019-04-29T14:17:42.883Z,37.49
2019-04-29T14:20:10.804Z,37.79
2019-04-29T14:22:35.525Z,37.40
2019-04-29T14:25:01.960Z,37.55
2019-04-29T14:27:28.281Z,37.53
2019-04-29T14:29:54.607Z,37.92
2019-04-29T14:32:33.403Z,38.29
2019-04-29T14:34:47.273Z,37.44
2019-04-29T14:37:25.027Z,37.20
2019-04-29T14:39:39.888Z,37.13
2019-04-29T14:42:06.218Z,37.87
2019-04-29T14:44:32.525Z,37.47
2019-04-29T14:46:58.857Z,37.58
2019-04-29T14:49:25.187Z,37.65
2019-04-29T14:51:51.516Z,37.48
2019-04-29T14:54:17.837Z,37.69
2019-04-29T14:56:44.149Z,38.01
2019-04-29T14:59:10.593Z,37.55
2019-04-29T15:01:36.957Z,38.02
2019-04-29T15:04:17.316Z,38.07
2019-04-29T15:06:29.653Z,37.96
2019-04-29T15:08:55.919Z,37.93
2019-04-29T15:11:31.346Z,37.83
2019-04-29T15:13:49.022Z,37.54
2019-04-29T15:16:15.528Z,37.75
2019-04-29T15:18:48.120Z,38.13
2019-04-29T15:21:08.505Z,37.78
2019-04-29T15:23:33.786Z,37.57
2019-04-29T15:26:00.106Z,37.80
2019-04-29T15:28:26.430Z,37.78
2019-04-29T15:30:52.766Z,38.05
2019-04-29T15:33:19.108Z,38.49
2019-04-29T15:35:45.487Z,38.45
2019-04-29T15:38:11.753Z,38.65
2019-04-29T15:40:42.951Z,37.09
2019-04-29T15:43:04.368Z,36.15
2019-04-29T15:45:32.416Z,37.09
2019-04-29T15:47:57.010Z,38.03
2019-04-29T15:50:23.361Z,38.18
2019-04-29T15:52:49.700Z,37.02
2019-04-29T15:55:15.994Z,35.73
2019-04-29T15:57:49.693Z,34.29
2019-04-29T16:00:21.207Z,33.04
2019-04-29T16:02:35.936Z,31.49
2019-04-29T16:05:04.590Z,30.17
2019-04-29T16:07:27.629Z,30.40
2019-04-29T16:09:53.933Z,29.89
2019-04-29T16:12:20.267Z,30.22
2019-04-29T16:14:49.188Z,29.86
2019-04-29T16:17:13.052Z,29.46
2019-04-29T16:19:39.237Z,30.01
2019-04-29T16:22:05.600Z,28.78
2019-04-29T16:24:37.612Z,29.00
2019-04-29T16:27:01.191Z,29.51
2019-04-29T16:29:24.532Z,29.88
2019-04-29T16:31:55.057Z,30.41
2019-04-29T16:34:17.227Z,30.37
2019-04-29T16:36:49.025Z,30.03
2019-04-29T16:39:10.248Z,30.32
2019-04-29T16:41:36.588Z,30.48
2019-04-29T16:44:02.920Z,30.12
2019-04-29T16:46:35.940Z,30.92
2019-04-29T16:48:56.161Z,30.68
2019-04-29T16:51:22.483Z,30.94
2019-04-29T16:53:48.798Z,30.88
2019-04-29T16:56:16.312Z,31.43
2019-04-29T16:58:41.469Z,31.12
2019-04-29T17:01:07.838Z,31.38
2019-04-29T17:03:34.139Z,31.43
2019-04-29T17:06:00.450Z,31.79
2019-04-29T17:08:26.856Z,31.68
2019-04-29T17:10:53.121Z,31.46
2019-04-29T17:13:23.775Z,31.83
2019-04-29T17:15:52.176Z,31.93
2019-04-29T17:18:12.083Z,31.51
2019-04-29T17:20:38.439Z,31.51
2019-04-29T17:23:04.709Z,31.72
2019-04-29T17:25:31.045Z,31.85
2019-04-29T17:27:57.350Z,31.69
2019-04-29T17:30:23.983Z,32.18
2019-04-29T17:32:50.833Z,32.04
2019-04-29T17:35:21.191Z,32.01
2019-04-29T17:37:42.649Z,32.04
2019-04-29T17:40:08.974Z,32.24
2019-04-29T17:42:35.433Z,32.70
2019-04-29T17:45:10.594Z,32.52
2019-04-29T17:47:31.122Z,32.81
2019-04-29T17:49:57.490Z,33.10
2019-04-29T17:52:25.825Z,33.36
2019-04-29T17:54:50.289Z,33.33
2019-04-29T17:57:28.335Z,33.75
2019-04-29T17:59:42.998Z,34.03
2019-04-29T18:02:09.306Z,34.02
2019-04-29T18:04:36.051Z,37.61
2019-04-29T18:07:10.546Z,42.97
2019-04-29T18:09:28.314Z,47.11
2019-04-29T18:11:57.498Z,49.29
2019-04-29T18:14:20.977Z,50.55
2019-04-29T18:16:47.958Z,52.55
2019-04-29T18:19:15.787Z,54.02
2019-04-29T18:21:43.460Z,55.12
2019-04-29T18:24:06.295Z,56.77
2019-04-29T18:26:32.616Z,57.56
2019-04-29T18:29:03.461Z,57.89
2019-04-29T18:31:26.458Z,58.34
2019-04-29T18:33:51.555Z,58.68
2019-04-29T18:36:23.609Z,59.13
2019-04-29T18:38:47.366Z,59.81
2019-04-29T18:41:10.541Z,59.82
2019-04-29T18:43:36.840Z,59.92
2019-04-29T18:46:05.975Z,59.93
2019-04-29T18:48:29.494Z,60.36
2019-04-29T18:50:57.062Z,60.84
2019-04-29T18:53:22.141Z,61.52
2019-04-29T18:55:48.471Z,62.23
2019-04-29T18:58:16.016Z,62.19
2019-04-29T19:00:41.135Z,62.47
2019-04-29T19:03:07.502Z,62.72
2019-04-29T19:05:35.698Z,62.71
2019-04-29T19:08:12.375Z,63.05
2019-04-29T19:10:34.512Z,63.36
2019-04-29T19:13:00.100Z,63.83
2019-04-29T19:15:21.072Z,63.82
2019-04-29T19:17:58.783Z,64.10
2019-04-29T19:20:16.697Z,64.13
2019-04-29T19:22:43.928Z,64.36
2019-04-29T19:25:08.733Z,64.90
2019-04-29T19:27:37.089Z,65.57
2019-04-29T19:29:59.207Z,65.23
2019-04-29T19:32:25.532Z,65.22
2019-04-29T19:34:54.921Z,65.12
2019-04-29T19:37:18.307Z,65.49
2019-04-29T19:39:44.984Z,65.44
2019-04-29T19:42:10.941Z,65.65
2019-04-29T19:44:37.280Z,66.03
2019-04-29T19:47:03.611Z,66.63
2019-04-29T19:49:29.927Z,66.57
2019-04-29T19:51:56.305Z,66.53
2019-04-29T19:54:24.557Z,66.62
2019-04-29T19:56:48.914Z,66.92
2019-04-29T19:59:17.363Z,67.11
2019-04-29T20:01:42.115Z,67.23
2019-04-29T20:04:15.645Z,67.43
2019-04-29T20:06:36.767Z,67.57
2019-04-29T20:09:01.908Z,67.73
2019-04-29T20:11:32.580Z,68.18
2019-04-29T20:14:03.755Z,67.58
2019-04-29T20:16:24.818Z,68.45
2019-04-29T20:18:58.482Z,68.62
2019-04-29T20:21:20.875Z,69.17
2019-04-29T20:23:39.451Z,69.44
2019-04-29T20:26:13.882Z,69.12
2019-04-29T20:28:31.236Z,68.16
2019-04-29T20:31:15.119Z,68.01
2019-04-29T20:33:23.906Z,67.12
2019-04-29T20:35:50.230Z,67.60
2019-04-29T20:38:16.479Z,66.05
2019-04-29T20:40:43.493Z,63.17
2019-04-29T20:43:09.248Z,61.58
2019-04-29T20:45:35.666Z,60.95
2019-04-29T20:48:01.849Z,60.92
2019-04-29T20:50:28.171Z,61.33
2019-04-29T20:52:59.107Z,61.35
2019-04-29T20:55:20.778Z,61.73
2019-04-29T20:57:47.916Z,61.21
2019-04-29T21:00:13.495Z,60.73
2019-04-29T21:02:39.791Z,60.56
2019-04-29T21:05:07.150Z,60.55
2019-04-29T21:07:32.299Z,59.83
2019-04-29T21:11:22.074Z,60.17
2019-04-29T21:13:48.882Z,61.03
2019-04-29T21:16:15.032Z,61.10
2019-04-29T21:18:39.613Z,61.17
2019-04-29T21:21:07.871Z,61.04
2019-04-29T21:23:35.505Z,61.13
2019-04-29T21:26:00.402Z,61.50
2019-04-29T21:28:24.923Z,61.72
2019-04-29T21:30:51.228Z,62.23
2019-04-29T21:33:20.976Z,62.99
2019-04-29T21:35:45.474Z,63.54
2019-04-29T21:38:10.318Z,64.34
2019-04-29T21:40:36.658Z,64.50
2019-04-29T21:43:06.267Z,65.01
2019-04-29T21:45:29.306Z,65.48
2019-04-29T21:47:55.664Z,65.46
2019-04-29T21:50:22.001Z,65.32
2019-04-29T21:52:48.329Z,65.38
2019-04-29T21:55:16.126Z,65.53
2019-04-29T21:57:40.954Z,65.62
2019-04-29T22:00:07.278Z,65.64
2019-04-29T22:02:35.650Z,65.37
2019-04-29T22:04:59.936Z,65.41
2019-04-29T22:07:26.241Z,65.52
2019-04-29T22:09:55.477Z,65.73
2019-04-29T22:12:20.567Z,66.39
2019-04-29T22:14:53.009Z,66.27
2019-04-29T22:17:11.648Z,66.54
2019-04-29T22:19:37.996Z,66.65
2019-04-29T22:22:05.689Z,66.77
2019-04-29T22:24:30.705Z,66.49
2019-04-29T22:27:04.168Z,66.73
2019-04-29T22:29:23.336Z,67.44
2019-04-29T22:31:49.695Z,67.81
2019-04-29T22:34:19.139Z,67.62
2019-04-29T22:36:42.311Z,67.39
2019-04-29T22:39:08.658Z,67.12
2019-04-29T22:41:34.969Z,67.18
2019-04-29T22:44:01.296Z,67.81
2019-04-29T22:46:27.606Z,68.30
2019-04-29T22:48:55.705Z,68.51
2019-04-29T22:51:20.270Z,68.58
2019-04-29T22:53:48.497Z,68.13
2019-04-29T22:56:14.235Z,66.84
2019-04-29T22:58:39.510Z,65.99
2019-04-29T23:01:06.800Z,66.61
2019-04-29T23:03:32.727Z,65.99
2019-04-29T23:06:00.163Z,65.23
2019-04-29T23:08:25.184Z,65.06
2019-04-29T23:10:50.972Z,65.31
2019-04-29T23:13:17.301Z,63.87
2019-04-29T23:15:45.431Z,63.17
2019-04-29T23:18:09.954Z,62.60
2019-04-29T23:20:36.300Z,63.56
2019-04-29T23:23:02.628Z,62.73
2019-04-29T23:25:29.992Z,62.30
2019-04-29T23:27:55.275Z,62.08
2019-04-29T23:30:21.619Z,61.69
2019-04-29T23:32:48.132Z,60.90
2019-04-29T23:35:15.326Z,63.05
2019-04-29T23:37:41.643Z,63.50
2019-04-29T23:40:07.948Z,63.21
2019-04-29T23:42:34.275Z,63.25
2019-04-29T23:45:00.643Z,63.94
2019-04-29T23:47:26.946Z,64.19
2019-04-29T23:49:53.276Z,64.57
2019-04-29T23:52:19.707Z,63.91
2019-04-29T23:54:48.555Z,63.81
2019-04-29T23:57:16.294Z,62.91
2019-04-29T23:59:38.700Z,60.97
